Time;durP1;ratioP1;P1;durP2;ratioP2;P2;SDS_P1;SDS_P2;PMS_P1;PMS_P2;Temp;Humidity;BMP_temperature;BMP_pressure;BME280_temperature;BME280_humidity;BME280_pressure;Samples;Min_cycle;Max_cycle;Signal;HPM_P1;HPM_P2
2022/01/25 00:26:19;;;;;;;4.47;1.70;;;20.80;75.70;;;;;;5116300;28;20412;-67
2022/01/25 00:28:52;;;;;;;2.97;1.80;;;20.80;75.90;;;;;;5098125;28;20413;-67
2022/01/25 00:31:18;;;;;;;2.47;1.40;;;20.80;75.80;;;;;;5097414;28;20432;-66
2022/01/25 00:33:51;;;;;;;2.60;1.50;;;20.80;76.10;;;;;;5097778;28;20393;-66
2022/01/25 00:36:20;;;;;;;2.40;1.60;;;20.80;76.00;;;;;;5097578;28;20183;-66
2022/01/25 00:38:47;;;;;;;3.60;1.50;;;20.80;75.60;;;;;;5097650;28;20409;-65
2022/01/25 00:41:13;;;;;;;3.90;2.00;;;20.80;76.00;;;;;;5093388;28;20839;-67
2022/01/25 00:43:39;;;;;;;1.87;1.50;;;20.80;76.10;;;;;;5097137;28;20409;-67
2022/01/25 00:46:08;;;;;;;3.27;1.50;;;20.80;76.60;;;;;;5097432;28;20465;-66
2022/01/25 00:56:19;;;;;;;6.43;3.97;;;20.90;78.10;;;;;;5115786;28;20452;-68
2022/01/25 00:58:45;;;;;;;7.70;4.80;;;20.80;74.90;;;;;;5097490;28;20440;-68
2022/01/25 01:01:11;;;;;;;9.67;6.30;;;19.70;77.40;;;;;;5096958;28;20544;-68
2022/01/25 01:03:36;;;;;;;11.60;7.10;;;19.10;75.20;;;;;;5096553;28;20174;-68
2022/01/25 01:06:05;;;;;;;16.37;6.17;;;18.80;73.90;;;;;;5115405;28;20920;-67
2022/01/25 01:08:31;;;;;;;7.90;5.27;;;18.70;75.50;;;;;;5097304;28;20212;-68
2022/01/25 01:10:58;;;;;;;10.13;4.80;;;19.50;70.40;;;;;;5096977;28;20440;-68
2022/01/25 01:13:50;;;;;;;6.20;4.20;;;19.80;67.40;;;;;;5096315;28;20434;-66
2022/01/25 01:40:54;;;;;;;6.03;3.00;;;20.50;65.30;;;;;;5114946;28;20444;-67
2022/01/25 01:43:34;;;;;;;4.53;2.63;;;20.50;65.10;;;;;;5095872;28;20573;-66
2022/01/25 01:48:36;;;;;;;4.83;2.70;;;20.50;65.10;;;;;;5114787;28;20423;-67
2022/01/25 01:51:15;;;;;;;3.97;2.67;;;20.60;65.20;;;;;;5096099;28;20525;-67
2022/01/25 01:53:42;;;;;;;6.90;2.20;;;20.50;65.30;;;;;;5095897;28;20413;-67
2022/01/25 01:56:08;;;;;;;4.70;2.60;;;20.60;65.40;;;;;;5096081;28;20444;-67
2022/01/25 01:58:38;;;;;;;3.10;2.13;;;20.60;65.50;;;;;;5095987;28;20444;-67
2022/01/25 02:01:12;;;;;;;7.10;2.93;;;20.60;65.30;;;;;;5096098;28;20956;-67
2022/01/25 02:03:38;;;;;;;5.23;2.37;;;20.60;65.70;;;;;;5095268;28;20401;-67
2022/01/25 02:06:03;;;;;;;4.17;2.10;;;20.60;65.60;;;;;;5096136;28;20416;-68
2022/01/25 02:08:29;;;;;;;15.20;2.20;;;20.60;65.70;;;;;;5096302;28;20232;-69
2022/01/25 02:10:55;;;;;;;3.50;2.43;;;20.60;65.50;;;;;;5096012;28;20195;-68
2022/01/25 02:13:20;;;;;;;3.47;2.50;;;20.60;65.60;;;;;;5095545;28;20624;-66
2022/01/25 02:15:48;;;;;;;11.27;2.93;;;20.60;65.70;;;;;;5095892;28;20182;-65
2022/01/25 02:23:44;;;;;;;6.10;2.50;;;20.60;65.50;;;;;;5113945;28;20935;-67
2022/01/25 02:26:12;;;;;;;4.90;2.43;;;20.60;65.80;;;;;;5095385;28;20516;-66
2022/01/25 02:28:40;;;;;;;4.33;2.60;;;20.60;65.70;;;;;;5095740;28;20481;-66
2022/01/25 02:31:08;;;;;;;7.00;2.60;;;20.60;65.90;;;;;;5113619;28;20444;-67
2022/01/25 02:33:35;;;;;;;3.43;2.20;;;20.60;65.80;;;;;;5094950;28;20500;-67
2022/01/25 02:36:05;;;;;;;11.83;2.30;;;20.60;65.80;;;;;;5095431;28;20473;-66
2022/01/25 02:38:32;;;;;;;2.97;2.20;;;20.60;65.90;;;;;;5095223;28;20449;-67
2022/01/25 02:40:59;;;;;;;2.73;2.17;;;20.60;66.00;;;;;;5094951;28;21016;-67
2022/01/25 02:43:26;;;;;;;3.87;2.37;;;20.70;66.00;;;;;;5104722;28;20519;-67
2022/01/25 02:48:58;;;;;;;2.97;2.03;;;20.70;66.10;;;;;;5030420;28;20784;-68
2022/01/25 02:51:30;;;;;;;4.90;2.60;;;20.70;66.10;;;;;;5081776;28;20497;-65
2022/01/25 02:53:56;;;;;;;3.70;2.10;;;20.60;65.80;;;;;;5095277;28;20425;-66
2022/01/25 02:56:23;;;;;;;2.63;1.90;;;20.60;66.10;;;;;;5113329;28;20417;-65
2022/01/25 02:58:49;;;;;;;2.87;1.70;;;20.60;66.30;;;;;;5095021;28;20421;-66
2022/01/25 03:01:15;;;;;;;2.93;2.40;;;20.60;66.20;;;;;;5095176;28;20519;-65
2022/01/25 03:03:41;;;;;;;4.10;2.30;;;20.60;66.20;;;;;;5094299;28;20754;-66
2022/01/25 03:06:07;;;;;;;7.67;2.13;;;20.70;66.10;;;;;;5095142;28;20412;-68
2022/01/25 03:08:33;;;;;;;5.50;2.50;;;20.60;66.30;;;;;;5095019;28;20258;-67
2022/01/25 03:10:59;;;;;;;9.03;2.07;;;20.60;66.40;;;;;;5094969;28;20277;-68
2022/01/25 03:13:31;;;;;;;2.60;1.90;;;20.70;66.40;;;;;;5094290;28;20421;-66
2022/01/25 03:16:02;;;;;;;2.77;1.83;;;20.70;66.40;;;;;;5095229;28;20412;-67
2022/01/25 03:21:14;;;;;;;4.37;1.83;;;20.70;66.40;;;;;;5113069;28;20776;-68
2022/01/25 03:23:40;;;;;;;2.00;1.47;;;20.70;66.10;;;;;;5094233;28;20432;-68
2022/01/25 03:26:06;;;;;;;2.60;1.93;;;20.70;66.30;;;;;;5094262;28;20928;-66
2022/01/25 03:28:32;;;;;;;4.10;2.00;;;20.70;66.20;;;;;;5094779;28;20679;-67
2022/01/25 03:30:58;;;;;;;2.67;2.00;;;20.70;66.30;;;;;;5113141;28;20609;-68
2022/01/25 03:33:23;;;;;;;3.70;2.00;;;20.70;66.50;;;;;;5094102;28;20416;-67
2022/01/25 03:35:49;;;;;;;12.10;2.07;;;20.70;66.50;;;;;;5094762;28;20628;-67
2022/01/25 03:38:15;;;;;;;3.33;2.10;;;20.70;66.40;;;;;;5094735;28;20187;-68
2022/01/25 03:40:41;;;;;;;3.00;1.73;;;20.80;66.80;;;;;;5094560;28;20210;-68
2022/01/25 03:43:08;;;;;;;2.57;1.60;;;20.80;66.70;;;;;;5112385;28;20179;-67
2022/01/25 03:45:36;;;;;;;2.60;2.00;;;20.80;67.00;;;;;;5095094;28;20203;-67
2022/01/25 03:50:45;;;;;;;3.23;1.90;;;20.80;66.90;;;;;;5112842;28;20472;-67
2022/01/25 03:53:13;;;;;;;2.80;1.70;;;20.80;66.80;;;;;;5094072;28;20924;-67
2022/01/25 03:55:39;;;;;;;4.40;2.27;;;20.80;67.10;;;;;;5094434;28;20908;-66
2022/01/25 03:58:05;;;;;;;5.63;2.10;;;20.70;67.00;;;;;;5097414;28;20424;-67
2022/01/25 04:00:32;;;;;;;3.03;1.50;;;20.70;67.40;;;;;;5097755;28;20441;-68
2022/01/25 04:03:09;;;;;;;7.70;1.83;;;20.70;67.70;;;;;;5098082;28;20429;-67
2022/01/25 04:05:48;;;;;;;2.77;1.60;;;20.70;67.70;;;;;;5098482;28;20460;-68
2022/01/25 04:08:14;;;;;;;3.50;1.67;;;20.80;67.60;;;;;;5098436;28;20511;-66
2022/01/25 04:10:41;;;;;;;5.73;1.90;;;20.70;67.60;;;;;;5116238;28;20520;-67
2022/01/25 04:13:07;;;;;;;2.43;1.67;;;20.70;67.40;;;;;;5097854;28;20424;-67
2022/01/25 04:15:34;;;;;;;6.30;1.70;;;20.70;67.50;;;;;;5098295;28;20439;-67
2022/01/25 04:20:55;;;;;;;4.20;1.97;;;20.80;67.50;;;;;;5116445;28;20459;-67
2022/01/25 04:26:05;;;;;;;9.43;1.57;;;20.80;67.40;;;;;;5116507;28;20461;-67
2022/01/25 04:28:30;;;;;;;4.47;1.57;;;20.80;67.50;;;;;;5097455;28;20409;-67
2022/01/25 04:30:56;;;;;;;3.13;1.80;;;20.80;67.90;;;;;;5097606;28;20199;-67
2022/01/25 04:33:26;;;;;;;3.43;1.70;;;20.70;67.40;;;;;;5097123;28;20171;-67
2022/01/25 04:36:23;;;;;;;4.40;1.70;;;20.80;67.50;;;;;;5097524;28;20179;-67
2022/01/25 04:49:45;;;;;;;2.30;1.40;;;20.70;66.30;;;;;;5116041;28;20963;-66
2022/01/25 04:52:15;;;;;;;2.20;1.60;;;20.70;66.60;;;;;;5097197;28;20421;-67
2022/01/25 04:54:53;;;;;;;2.33;1.67;;;20.70;66.70;;;;;;5097312;28;21193;-66
2022/01/25 05:00:12;;;;;;;2.40;1.43;;;20.70;66.60;;;;;;5115547;28;20439;-67
2022/01/25 05:02:48;;;;;;;2.97;1.60;;;20.70;66.40;;;;;;5096819;28;20420;-68
2022/01/25 05:05:27;;;;;;;2.50;1.47;;;20.70;66.40;;;;;;5097073;28;20456;-67
2022/01/25 05:10:21;;;;;;;3.27;1.60;;;20.80;65.60;;;;;;5115268;28;20456;-68
2022/01/25 05:13:18;;;;;;;6.93;1.60;;;20.70;66.10;;;;;;5114581;28;20631;-67
2022/01/25 05:23:24;;;;;;;3.87;1.90;;;20.80;66.90;;;;;;5114931;28;20519;-67
2022/01/25 05:25:50;;;;;;;1.53;1.27;;;20.80;66.90;;;;;;5096583;28;20875;-68
2022/01/25 05:28:16;;;;;;;3.50;1.80;;;20.80;67.00;;;;;;5097011;28;20703;-68
2022/01/25 05:30:42;;;;;;;5.63;1.77;;;20.80;67.00;;;;;;5096352;28;20218;-68
2022/01/25 05:33:08;;;;;;;3.60;1.73;;;20.90;67.20;;;;;;5096257;28;20440;-68
2022/01/25 05:35:34;;;;;;;4.43;1.40;;;20.90;67.10;;;;;;5114792;28;20175;-69
2022/01/25 05:38:00;;;;;;;2.80;1.30;;;20.90;67.10;;;;;;5096581;28;20182;-69
2022/01/25 05:40:42;;;;;;;3.10;1.50;;;20.90;67.20;;;;;;5096235;28;20432;-68
2022/01/25 05:48:31;;;;;;;3.37;1.40;;;20.90;66.90;;;;;;5114834;28;20420;-68
2022/01/25 05:50:58;;;;;;;1.93;1.10;;;20.90;66.90;;;;;;5096115;28;20524;-68
2022/01/25 05:53:23;;;;;;;7.00;1.77;;;20.90;66.70;;;;;;5095754;28;20424;-68
2022/01/25 05:55:49;;;;;;;6.07;1.60;;;20.90;66.80;;;;;;5096413;28;20424;-68
2022/01/25 05:58:15;;;;;;;2.20;1.30;;;20.90;66.90;;;;;;5096845;28;20221;-68
2022/01/25 06:00:41;;;;;;;2.70;1.60;;;20.90;66.70;;;;;;5096290;28;20219;-68
2022/01/25 06:03:07;;;;;;;2.53;1.60;;;20.90;66.60;;;;;;5095807;28;20428;-68
2022/01/25 06:05:34;;;;;;;3.47;1.73;;;20.90;66.50;;;;;;5095907;28;20809;-68
2022/01/25 06:08:00;;;;;;;1.77;1.37;;;20.90;66.30;;;;;;5095789;28;20504;-68
2022/01/25 06:10:26;;;;;;;2.27;1.43;;;20.90;66.20;;;;;;5096149;28;20880;-69
2022/01/25 06:12:51;;;;;;;4.10;1.50;;;20.90;66.20;;;;;;5097277;27;20171;-68
2022/01/25 06:15:17;;;;;;;3.50;1.70;;;20.90;66.20;;;;;;5095844;28;20171;-68
2022/01/25 06:17:43;;;;;;;12.53;1.83;;;20.80;66.10;;;;;;5114381;28;20186;-69
2022/01/25 06:20:10;;;;;;;4.63;1.90;;;20.90;66.50;;;;;;5094992;28;20202;-69
2022/01/25 06:22:36;;;;;;;23.80;12.30;;;20.90;66.30;;;;;;5095521;28;20420;-69
2022/01/25 06:25:02;;;;;;;15.00;8.67;;;17.30;61.40;;;;;;5095817;28;20478;-67
2022/01/25 06:27:28;;;;;;;22.73;7.87;;;17.90;79.50;;;;;;5099831;28;20407;-67
2022/01/25 06:29:53;;;;;;;15.40;7.50;;;18.90;79.90;;;;;;5105872;28;20429;-68
2022/01/25 06:32:20;;;;;;;9.10;6.00;;;19.60;78.90;;;;;;5094714;28;20171;-68
2022/01/25 06:34:46;;;;;;;10.53;6.13;;;20.00;78.40;;;;;;5095950;28;20178;-68
2022/01/25 06:37:13;;;;;;;9.47;5.77;;;19.90;77.70;;;;;;5100225;27;20464;-68
2022/01/25 06:39:39;;;;;;;8.83;4.73;;;20.30;77.90;;;;;;5118720;27;20429;-70
2022/01/25 06:42:06;;;;;;;9.57;4.40;;;20.30;77.00;;;;;;5094256;28;20407;-69
2022/01/25 06:44:34;;;;;;;6.83;4.33;;;20.40;77.20;;;;;;5095467;28;20457;-69
2022/01/25 06:47:00;;;;;;;5.90;3.90;;;20.50;76.90;;;;;;5095599;28;20416;-68
2022/01/25 06:49:26;;;;;;;4.83;3.60;;;20.50;76.80;;;;;;5095485;28;20405;-68
2022/01/25 06:51:51;;;;;;;10.23;3.40;;;20.50;76.90;;;;;;5095173;28;20419;-69
2022/01/25 06:54:17;;;;;;;6.00;3.47;;;20.50;77.10;;;;;;5095590;28;20183;-68
2022/01/25 06:56:43;;;;;;;5.80;3.10;;;20.60;76.90;;;;;;5095486;28;20179;-69
2022/01/25 06:59:09;;;;;;;3.80;2.80;;;20.60;77.20;;;;;;5095416;28;20413;-67
2022/01/25 07:01:34;;;;;;;3.80;2.70;;;20.60;77.30;;;;;;5095261;28;20191;-66
2022/01/25 07:04:00;;;;;;;8.23;2.80;;;20.60;77.50;;;;;;5114232;28;20177;-67
2022/01/25 07:06:26;;;;;;;11.90;2.30;;;20.60;77.40;;;;;;5096005;28;20174;-69
2022/01/25 07:08:52;;;;;;;9.03;2.70;;;20.60;77.60;;;;;;5095790;28;20186;-68
2022/01/25 07:11:17;;;;;;;3.77;2.17;;;20.60;77.60;;;;;;5095182;28;20191;-69
2022/01/25 07:13:43;;;;;;;3.60;2.13;;;20.60;78.50;;;;;;5113487;28;20170;-69
2022/01/25 07:16:09;;;;;;;6.83;2.73;;;20.60;77.70;;;;;;5095382;28;20167;-69
2022/01/25 07:18:34;;;;;;;4.37;2.43;;;20.70;77.90;;;;;;5095220;28;20206;-70
2022/01/25 07:21:00;;;;;;;3.50;2.27;;;20.70;77.80;;;;;;5095233;28;20199;-69
2022/01/25 07:23:26;;;;;;;4.57;2.50;;;20.70;77.60;;;;;;5094807;28;20175;-68
2022/01/25 07:25:52;;;;;;;6.03;2.40;;;20.70;78.00;;;;;;5113438;28;20963;-70
2022/01/25 07:28:18;;;;;;;5.97;2.50;;;20.70;78.10;;;;;;5113535;28;20177;-70
2022/01/25 07:30:43;;;;;;;3.87;2.10;;;20.70;78.10;;;;;;5094962;28;20650;-68
2022/01/25 07:33:10;;;;;;;5.07;2.40;;;20.70;78.10;;;;;;5097911;28;20413;-67
2022/01/25 07:35:37;;;;;;;7.00;2.30;;;20.70;78.30;;;;;;5099247;28;20182;-69
2022/01/25 07:38:03;;;;;;;4.20;2.00;;;20.70;78.20;;;;;;5099219;28;20819;-67
2022/01/25 07:40:30;;;;;;;8.40;2.17;;;20.80;78.30;;;;;;5099160;28;20976;-69
2022/01/25 07:42:56;;;;;;;3.73;1.77;;;20.70;78.10;;;;;;5098986;28;20175;-68
2022/01/25 07:45:21;;;;;;;2.37;1.97;;;20.70;78.20;;;;;;5099036;28;20445;-68
2022/01/25 07:47:48;;;;;;;3.33;2.07;;;20.80;78.10;;;;;;5099266;28;20575;-67
2022/01/25 07:50:15;;;;;;;3.20;2.20;;;20.80;78.20;;;;;;5098917;28;20195;-68
2022/01/25 07:52:41;;;;;;;6.87;2.20;;;20.80;78.40;;;;;;5098540;28;20401;-69
2022/01/25 07:55:07;;;;;;;4.13;2.27;;;20.70;78.20;;;;;;5098974;28;20416;-70
2022/01/25 07:57:33;;;;;;;4.50;1.83;;;20.80;78.50;;;;;;5098771;28;20181;-68
2022/01/25 07:59:59;;;;;;;2.33;1.77;;;20.80;78.40;;;;;;5097410;28;20519;-68
2022/01/25 08:02:25;;;;;;;3.90;2.20;;;20.80;78.60;;;;;;5097830;28;20484;-71
2022/01/25 08:04:51;;;;;;;3.93;2.17;;;20.80;78.20;;;;;;5098281;28;20448;-71
2022/01/25 08:07:17;;;;;;;4.10;2.70;;;20.80;77.30;;;;;;5098660;28;20415;-71
2022/01/25 08:09:43;;;;;;;4.50;2.10;;;20.80;76.40;;;;;;5098475;28;20178;-71
2022/01/25 08:12:11;;;;;;;7.67;2.60;;;20.80;75.70;;;;;;5098242;28;20409;-71
2022/01/25 08:14:38;;;;;;;4.43;2.67;;;20.80;75.20;;;;;;5098703;28;20401;-71
2022/01/25 08:17:04;;;;;;;6.30;3.10;;;20.80;74.80;;;;;;5098284;28;20419;-71
2022/01/25 08:19:30;;;;;;;4.23;2.47;;;20.80;74.50;;;;;;5098028;28;20850;-71
2022/01/25 08:21:55;;;;;;;10.40;3.30;;;20.80;74.10;;;;;;5097811;28;20448;-71
2022/01/25 08:24:21;;;;;;;4.40;2.67;;;20.90;74.00;;;;;;5098262;28;20286;-71
2022/01/25 08:26:48;;;;;;;5.17;3.10;;;20.80;73.80;;;;;;5098137;28;20263;-71
2022/01/25 08:29:13;;;;;;;6.20;3.27;;;20.80;73.60;;;;;;5097770;28;20897;-71
2022/01/25 08:31:40;;;;;;;12.43;3.40;;;20.90;73.50;;;;;;5097449;28;20440;-70
2022/01/25 08:34:07;;;;;;;6.20;2.57;;;20.90;73.70;;;;;;5097787;28;20401;-69
2022/01/25 08:36:32;;;;;;;7.27;3.10;;;20.80;74.60;;;;;;5097989;28;20401;-70
2022/01/25 08:38:59;;;;;;;15.70;3.47;;;20.90;74.90;;;;;;5097805;28;20413;-70
2022/01/25 08:41:25;;;;;;;6.70;3.40;;;20.90;54.60;;;;;;5097304;28;20705;-68
2022/01/25 08:43:51;;;;;;;17.10;4.10;;;19.20;52.80;;;;;;5097228;28;20413;-69
2022/01/25 08:46:18;;;;;;;10.20;4.30;;;19.80;56.30;;;;;;5116021;28;20801;-68
2022/01/25 08:48:45;;;;;;;9.03;3.30;;;20.30;55.90;;;;;;5097608;28;20413;-66
2022/01/25 08:51:11;;;;;;;8.47;3.57;;;20.60;55.50;;;;;;5097489;28;20437;-68
2022/01/25 08:53:37;;;;;;;6.83;3.70;;;20.70;55.50;;;;;;5097393;28;20415;-66
2022/01/25 08:56:03;;;;;;;8.97;2.87;;;20.80;55.50;;;;;;5097513;28;20950;-67
2022/01/25 08:58:29;;;;;;;4.60;2.63;;;20.90;55.40;;;;;;5097528;28;20171;-67
2022/01/25 09:00:55;;;;;;;6.83;3.30;;;20.90;55.30;;;;;;5097298;28;20846;-67
2022/01/25 09:03:21;;;;;;;6.50;3.70;;;21.00;55.20;;;;;;5115056;28;20178;-67
2022/01/25 09:05:47;;;;;;;4.10;2.53;;;21.00;55.30;;;;;;5097181;28;20531;-67
2022/01/25 09:08:23;;;;;;;7.10;3.30;;;21.00;55.20;;;;;;5097372;28;20210;-67
2022/01/25 09:10:52;;;;;;;7.97;3.47;;;21.00;55.30;;;;;;5097200;28;20315;-68
2022/01/25 09:13:21;;;;;;;5.73;2.90;;;21.10;55.20;;;;;;5096926;28;20405;-68
2022/01/25 09:15:47;;;;;;;13.20;3.23;;;21.20;55.20;;;;;;5097146;28;20412;-69
2022/01/25 09:18:13;;;;;;;5.63;3.30;;;21.30;55.10;;;;;;5097115;28;20421;-67
2022/01/25 09:20:38;;;;;;;6.17;3.83;;;21.40;54.80;;;;;;5096879;28;20218;-68
2022/01/25 09:23:04;;;;;;;5.97;3.73;;;21.50;55.00;;;;;;5096718;28;20171;-69
2022/01/25 09:25:30;;;;;;;6.47;3.13;;;21.60;55.20;;;;;;5097125;28;20194;-68
2022/01/25 09:27:56;;;;;;;6.13;3.53;;;21.60;55.20;;;;;;5096948;28;20408;-69
2022/01/25 09:30:22;;;;;;;3.63;2.33;;;21.70;54.90;;;;;;5096865;28;20425;-69
2022/01/25 09:32:48;;;;;;;3.50;2.33;;;21.70;55.20;;;;;;5096668;28;20229;-69
2022/01/25 09:35:14;;;;;;;5.60;3.07;;;21.70;55.20;;;;;;5097000;28;20916;-69
2022/01/25 09:37:39;;;;;;;5.10;3.20;;;21.80;55.20;;;;;;5097140;28;20691;-68
2022/01/25 09:40:06;;;;;;;4.40;2.90;;;21.80;55.20;;;;;;5096706;28;20278;-69
2022/01/25 09:42:32;;;;;;;7.20;2.80;;;21.80;55.00;;;;;;5096519;28;20217;-68
2022/01/25 09:44:58;;;;;;;4.43;2.93;;;21.80;55.20;;;;;;5096647;28;20506;-69
2022/01/25 09:47:24;;;;;;;5.40;2.80;;;21.80;55.00;;;;;;5096748;28;20713;-69
2022/01/25 09:49:50;;;;;;;5.87;3.07;;;21.80;55.20;;;;;;5096653;28;20512;-66
2022/01/25 09:52:18;;;;;;;4.73;2.60;;;21.80;55.10;;;;;;5096399;28;20181;-69
2022/01/25 09:54:53;;;;;;;4.60;2.40;;;21.80;54.70;;;;;;5095810;28;20174;-67
2022/01/25 09:57:19;;;;;;;4.17;2.40;;;21.80;55.00;;;;;;5096733;28;20503;-68
2022/01/25 09:59:44;;;;;;;4.73;2.73;;;21.80;54.60;;;;;;5096559;28;20513;-68
2022/01/25 10:02:10;;;;;;;4.47;3.37;;;21.80;54.40;;;;;;5096183;28;20182;-70
2022/01/25 10:04:39;;;;;;;4.03;2.83;;;21.80;54.50;;;;;;5096483;28;20206;-68
2022/01/25 10:07:08;;;;;;;2.83;2.50;;;21.90;54.50;;;;;;5096375;28;20182;-70
2022/01/25 10:09:33;;;;;;;4.20;2.50;;;21.90;54.50;;;;;;5096179;28;20758;-69
2022/01/25 10:12:16;;;;;;;3.17;1.90;;;21.90;54.80;;;;;;5096035;28;20428;-70
2022/01/25 10:15:01;;;;;;;4.10;1.93;;;22.00;55.00;;;;;;5096344;28;20178;-70
2022/01/25 10:17:35;;;;;;;5.23;2.77;;;22.00;54.80;;;;;;5096379;28;20412;-70
2022/01/25 10:20:01;;;;;;;4.97;2.30;;;22.00;54.80;;;;;;5095768;28;20448;-69
2022/01/25 10:22:27;;;;;;;2.83;2.13;;;22.00;54.60;;;;;;5114116;28;20760;-71
2022/01/25 10:24:53;;;;;;;3.90;2.20;;;22.00;54.90;;;;;;5096264;28;20209;-70
2022/01/25 10:28:06;;;;;;;2.53;2.20;;;22.10;54.90;;;;;;5096072;28;20413;-71
2022/01/25 10:30:09;;;;;;;3.00;1.77;;;22.10;54.90;;;;;;5099541;28;20559;-70
2022/01/25 10:32:37;;;;;;;5.80;2.40;;;22.10;54.80;;;;;;5095314;28;20817;-70
2022/01/25 10:35:13;;;;;;;3.30;1.97;;;22.10;54.90;;;;;;5095585;28;20823;-70
2022/01/25 10:37:41;;;;;;;5.13;2.00;;;22.10;55.00;;;;;;5095658;28;20919;-71
2022/01/25 10:40:07;;;;;;;3.57;2.37;;;22.10;55.00;;;;;;5095157;28;20436;-72
2022/01/25 10:42:34;;;;;;;3.93;2.33;;;22.20;54.90;;;;;;5095078;28;20413;-70
2022/01/25 10:45:04;;;;;;;4.27;2.10;;;22.20;54.70;;;;;;5095312;28;20805;-69
2022/01/25 10:47:50;;;;;;;2.97;1.90;;;22.30;55.10;;;;;;5095481;28;20415;-72
2022/01/25 10:50:17;;;;;;;3.90;1.80;;;22.40;54.80;;;;;;5095248;28;20421;-69
2022/01/25 10:52:44;;;;;;;3.73;2.20;;;22.40;54.90;;;;;;5095009;28;20409;-69
2022/01/25 10:55:11;;;;;;;2.83;1.93;;;22.40;54.70;;;;;;5095339;28;20409;-73
2022/01/25 10:57:37;;;;;;;2.40;1.63;;;22.40;54.80;;;;;;5095206;28;20492;-70
2022/01/25 11:00:12;;;;;;;2.67;1.93;;;22.40;54.80;;;;;;5095061;28;20435;-69
2022/01/25 11:02:51;;;;;;;3.07;2.00;;;22.50;54.90;;;;;;5094933;28;20416;-71
2022/01/25 11:05:18;;;;;;;3.20;1.90;;;22.50;55.00;;;;;;5094893;28;20816;-70
2022/01/25 11:07:44;;;;;;;3.40;2.07;;;22.50;55.00;;;;;;5095158;28;20410;-72
2022/01/25 11:10:19;;;;;;;2.70;1.70;;;22.60;55.10;;;;;;5095331;28;20817;-69
2022/01/25 11:13:02;;;;;;;2.20;1.50;;;22.60;55.20;;;;;;5094808;28;20487;-71
2022/01/25 11:15:27;;;;;;;3.37;2.00;;;22.60;55.00;;;;;;5095124;28;20417;-69
2022/01/25 11:17:53;;;;;;;2.47;1.90;;;22.60;55.10;;;;;;5095131;28;20815;-72
2022/01/25 11:20:19;;;;;;;3.07;1.90;;;22.60;55.10;;;;;;5094626;28;20674;-72
2022/01/25 11:22:45;;;;;;;2.83;1.77;;;22.60;55.20;;;;;;5094729;28;20327;-70
2022/01/25 11:25:17;;;;;;;2.43;1.50;;;22.60;55.00;;;;;;5094892;28;20562;-72
2022/01/25 11:27:43;;;;;;;2.20;1.70;;;22.70;55.00;;;;;;5094920;28;20413;-71
2022/01/25 11:30:13;;;;;;;3.13;1.73;;;22.70;55.10;;;;;;5094769;28;20433;-69
2022/01/25 11:32:43;;;;;;;2.87;1.80;;;22.70;55.00;;;;;;5094566;28;20432;-70
2022/01/25 11:35:11;;;;;;;2.57;1.70;;;22.70;54.90;;;;;;5094815;28;20937;-73
2022/01/25 11:37:43;;;;;;;3.50;2.10;;;22.70;54.90;;;;;;5094818;28;20417;-71
2022/01/25 11:40:22;;;;;;;2.40;1.67;;;22.70;54.80;;;;;;5095055;28;20440;-70
2022/01/25 11:42:52;;;;;;;2.33;1.70;;;22.70;55.10;;;;;;5094576;28;20412;-71
2022/01/25 11:45:23;;;;;;;3.07;1.60;;;22.80;55.00;;;;;;5095043;28;20544;-71
2022/01/25 11:47:51;;;;;;;2.10;1.67;;;22.80;55.00;;;;;;5095011;28;20504;-69
2022/01/25 11:50:17;;;;;;;2.60;1.47;;;22.80;55.10;;;;;;5094874;28;20435;-71
2022/01/25 11:52:55;;;;;;;2.90;1.60;;;22.80;55.20;;;;;;5094621;28;20551;-71
2022/01/25 11:55:30;;;;;;;2.50;1.60;;;22.80;55.00;;;;;;5095066;28;20420;-70
2022/01/25 11:58:06;;;;;;;2.93;1.70;;;22.80;55.00;;;;;;5094965;28;20427;-72
2022/01/25 12:01:00;;;;;;;7.10;1.87;;;22.80;55.00;;;;;;5094855;28;20984;-71
2022/01/25 12:03:29;;;;;;;2.40;1.70;;;22.80;53.00;;;;;;5091625;28;20429;-72
2022/01/25 12:05:59;;;;;;;3.50;1.77;;;22.80;54.70;;;;;;5094680;28;20465;-72
2022/01/25 12:08:39;;;;;;;2.40;1.50;;;22.80;55.00;;;;;;5094672;28;20912;-71
2022/01/25 12:11:41;;;;;;;2.90;1.40;;;22.80;55.00;;;;;;5094126;28;20951;-73
2022/01/25 12:14:14;;;;;;;2.57;1.53;;;22.80;55.10;;;;;;5094138;28;20408;-71
2022/01/25 12:16:45;;;;;;;2.73;1.87;;;22.80;55.00;;;;;;5093897;28;20420;-71
2022/01/25 12:19:13;;;;;;;3.00;1.57;;;22.80;55.00;;;;;;5096625;28;20785;-72
2022/01/25 12:21:45;;;;;;;2.30;1.53;;;22.90;55.10;;;;;;5096907;28;20443;-73
2022/01/25 12:24:26;;;;;;;3.20;1.67;;;22.80;55.20;;;;;;5097718;28;20511;-72
2022/01/25 12:29:45;;;;;;;5.20;1.57;;;22.80;55.10;;;;;;5116664;28;20385;-73
2022/01/25 12:32:20;;;;;;;2.60;1.37;;;22.80;55.20;;;;;;5097841;28;20401;-73
2022/01/25 12:35:05;;;;;;;2.27;1.47;;;22.80;55.40;;;;;;5098215;28;20458;-73
2022/01/25 12:38:11;;;;;;;5.87;3.20;;;22.80;54.10;;;;;;5098254;28;20424;-75
2022/01/25 12:40:48;;;;;;;5.73;3.40;;;22.40;49.10;;;;;;5086432;28;20451;-74
2022/01/25 12:43:33;;;;;;;7.73;4.50;;;22.30;48.80;;;;;;5097747;28;20413;-74
2022/01/25 12:46:02;;;;;;;7.00;4.43;;;22.10;48.90;;;;;;5097968;28;20533;-74
2022/01/25 12:48:32;;;;;;;6.47;4.57;;;22.00;48.90;;;;;;5097802;28;20989;-74
2022/01/25 12:51:03;;;;;;;6.93;4.13;;;21.90;50.10;;;;;;5097739;28;20477;-74
2022/01/25 12:53:30;;;;;;;7.97;4.93;;;21.80;51.40;;;;;;5097552;28;20435;-74
2022/01/25 12:55:59;;;;;;;9.53;4.97;;;21.60;61.30;;;;;;5097792;28;20424;-72
2022/01/25 12:58:28;;;;;;;6.30;4.53;;;21.60;67.10;;;;;;5097771;28;20420;-71
2022/01/25 13:00:57;;;;;;;6.50;4.60;;;21.50;67.90;;;;;;5115837;28;20425;-73
2022/01/25 13:03:29;;;;;;;9.53;5.30;;;21.40;53.50;;;;;;5097225;28;20420;-74
2022/01/25 13:06:17;;;;;;;6.97;5.00;;;21.40;56.10;;;;;;5097441;28;20496;-72
2022/01/25 13:08:56;;;;;;;7.97;4.83;;;21.20;67.60;;;;;;5097392;28;20413;-72
2022/01/25 13:11:30;;;;;;;9.20;5.27;;;21.20;69.20;;;;;;5097432;28;20818;-72
2022/01/25 13:16:39;;;;;;;6.80;4.90;;;;;;;;;;5115597;28;20409;-71
2022/01/25 13:19:06;;;;;;;9.53;5.10;;;;;;;;;;5097110;28;20496;-71
2022/01/25 13:21:39;;;;;;;7.30;5.20;;;;;;;;;;5115059;28;20900;-71
2022/01/25 13:24:10;;;;;;;9.23;4.60;;;;;;;;;;5097077;28;20920;-72
2022/01/25 13:26:42;;;;;;;9.43;4.90;;;;;;;;;;5097136;28;20401;-72
2022/01/25 13:32:16;;;;;;;8.17;4.67;;;;;;;;;;5085815;28;20409;-70
2022/01/25 13:34:42;;;;;;;8.50;4.60;;;;;;;;;;5096964;28;20761;-71
2022/01/25 13:37:18;;;;;;;8.40;5.33;;;;;;;;;;5096896;28;20413;-71
2022/01/25 13:39:53;;;;;;;8.20;5.37;;;;;;;;;;5096698;28;20429;-71
2022/01/25 13:42:25;;;;;;;8.00;5.37;;;;;;;;;;5096468;28;20916;-71
2022/01/25 13:45:50;;;;;;;9.50;4.97;;;;;;;;;;5096809;28;20464;-71
2022/01/25 13:48:00;;;;;;;7.53;5.07;;;20.80;82.90;;;;;;5104132;28;20409;-72
2022/01/25 13:50:26;;;;;;;8.27;5.27;;;20.70;69.60;;;;;;5096443;28;20436;-71
2022/01/25 13:52:52;;;;;;;7.20;5.60;;;20.50;70.50;;;;;;5096240;28;20912;-72
2022/01/25 13:55:18;;;;;;;11.10;6.00;;;20.50;70.30;;;;;;5096756;28;20421;-70
2022/01/25 13:57:44;;;;;;;8.30;5.47;;;20.40;70.50;;;;;;5114891;28;20256;-72
2022/01/25 14:00:11;;;;;;;8.90;5.20;;;20.30;73.70;;;;;;5096395;28;20194;-71
2022/01/25 14:02:38;;;;;;;11.67;6.10;;;20.40;75.10;;;;;;5096205;28;20186;-71
2022/01/25 14:05:04;;;;;;;10.97;6.23;;;20.20;76.80;;;;;;5096463;28;20594;-71
2022/01/25 14:07:36;;;;;;;10.83;6.53;;;;;;;;;;5096533;28;20501;-71
2022/01/25 14:10:08;;;;;;;11.73;6.40;;;;;;;;;;5096223;28;20437;-71
2022/01/25 14:23:47;;;;;;;13.37;8.67;;;;;;;;;;5114226;28;21022;-71
2022/01/25 14:26:14;;;;;;;22.93;8.90;;;;;;;;;;5095923;28;20955;-71
2022/01/25 14:28:51;;;;;;;17.50;9.13;;;;;;;;;;5095946;28;20413;-70
2022/01/25 14:31:25;;;;;;;16.43;8.97;;;;;;;;;;5079149;28;21005;-71
2022/01/25 14:33:56;;;;;;;13.27;8.40;;;;;;;;;;5095866;28;20401;-71
2022/01/25 14:36:24;;;;;;;14.50;8.93;;;;;;;;;;5095802;28;20939;-71
2022/01/25 14:38:54;;;;;;;14.50;8.07;;;;;;;;;;5095851;28;20417;-71
2022/01/25 14:41:29;;;;;;;13.50;8.40;;;;;;;;;;5095060;28;20421;-68
2022/01/25 14:44:00;;;;;;;9.83;6.33;;;;;;;;;;5095585;28;20409;-67
2022/01/25 14:46:32;;;;;;;9.00;5.63;;;;;;;;;;5095620;28;20488;-65
2022/01/25 14:49:13;;;;;;;23.90;5.77;;;;;;;;;;5095617;28;20873;-72
2022/01/25 14:51:47;;;;;;;7.70;4.50;;;;;;;;;;5095116;28;20642;-72
2022/01/25 14:54:16;;;;;;;8.53;4.53;;;;;;;;;;5095658;28;20420;-69
2022/01/25 14:56:51;;;;;;;13.77;3.53;;;;;;;;;;5095422;28;20900;-69
2022/01/25 14:59:26;;;;;;;5.07;3.07;;;;;;;;;;5093835;28;20496;-69
2022/01/25 15:01:54;;;;;;;6.37;3.00;;;;;;;;;;5092757;28;20777;-69
2022/01/25 15:04:20;;;;;;;4.40;2.33;;;;;;;;;;5095367;28;20410;-73
2022/01/25 15:06:46;;;;;;;6.47;2.60;;;;;;;;;;5094890;28;20421;-70
2022/01/25 15:09:14;;;;;;;8.40;2.13;;;;;;;;;;5095253;28;20413;-71
2022/01/25 15:11:40;;;;;;;2.77;1.77;;;;;;;;;;5094833;28;20443;-70
2022/01/25 15:14:17;;;;;;;2.93;1.40;;;;;;;;;;5095304;28;20440;-70
2022/01/25 15:16:43;;;;;;;3.70;1.33;;;;;;;;;;5095098;28;20904;-73